Time;durP1;ratioP1;P1;durP2;ratioP2;P2;SDS_P1;SDS_P2;PMS_P1;PMS_P2;Temp;Humidity;BMP_temperature;BMP_pressure;BME280_temperature;BME280_humidity;BME280_pressure;Samples;Min_cycle;Max_cycle;Signal;HPM_P1;HPM_P2
2024/03/23 00:00:44;;;;;;;14.00;3.10;;;9.60;99.90;;;;;;4900154;29;20516;-67
2024/03/23 00:03:16;;;;;;;8.90;2.40;;;9.50;99.90;;;;;;4902984;29;20448;-66
2024/03/23 00:05:46;;;;;;;9.43;3.17;;;9.40;99.90;;;;;;4903877;29;20833;-67
2024/03/23 00:08:15;;;;;;;12.57;2.70;;;9.20;99.90;;;;;;4897267;29;20542;-67
2024/03/23 00:10:46;;;;;;;11.07;2.40;;;9.20;99.90;;;;;;4900173;29;20526;-67
2024/03/23 00:13:15;;;;;;;4.90;3.10;;;9.20;99.90;;;;;;4906595;29;20468;-67
2024/03/23 00:15:46;;;;;;;11.40;2.30;;;9.20;99.90;;;;;;4901264;29;20459;-67
2024/03/23 00:18:15;;;;;;;5.90;2.80;;;9.10;99.90;;;;;;4901416;29;20542;-67
2024/03/23 00:20:45;;;;;;;12.00;3.03;;;9.10;99.90;;;;;;4899617;29;20568;-67
2024/03/23 00:23:15;;;;;;;3.67;1.80;;;9.20;99.90;;;;;;4904891;29;20921;-67
2024/03/23 00:25:45;;;;;;;6.73;2.17;;;9.30;99.90;;;;;;4905368;29;20496;-67
2024/03/23 00:28:14;;;;;;;6.70;2.70;;;9.30;99.90;;;;;;4890161;29;20476;-68
2024/03/23 00:30:46;;;;;;;4.00;1.90;;;9.20;99.90;;;;;;4897651;29;21029;-68
2024/03/23 00:33:15;;;;;;;7.53;2.80;;;9.10;99.90;;;;;;4891609;29;20951;-67
2024/03/23 00:35:48;;;;;;;4.07;2.00;;;9.10;99.90;;;;;;4898822;29;20659;-68
2024/03/23 00:38:20;;;;;;;9.70;2.27;;;9.00;99.90;;;;;;4896357;29;20436;-67
2024/03/23 00:40:50;;;;;;;3.83;2.67;;;9.10;99.90;;;;;;4898357;29;20825;-67
2024/03/23 00:43:20;;;;;;;3.37;1.87;;;9.20;99.90;;;;;;4900203;29;20453;-67
2024/03/23 00:45:50;;;;;;;2.47;2.27;;;9.20;99.90;;;;;;4899965;29;20464;-67
2024/03/23 00:48:19;;;;;;;2.80;1.93;;;9.20;99.90;;;;;;4917101;29;20451;-67
2024/03/23 00:50:50;;;;;;;9.80;2.33;;;9.20;99.90;;;;;;4917269;29;20515;-67
2024/03/23 00:53:19;;;;;;;6.23;2.40;;;9.30;99.90;;;;;;4911511;29;20470;-67
2024/03/23 00:55:47;;;;;;;6.70;2.20;;;9.30;99.90;;;;;;4914179;29;21069;-67
2024/03/23 00:58:13;;;;;;;5.57;2.47;;;9.20;99.90;;;;;;4913848;29;20810;-67
2024/03/23 01:00:40;;;;;;;3.03;1.80;;;9.30;99.90;;;;;;4916681;29;20477;-67
2024/03/23 01:03:05;;;;;;;7.93;3.13;;;9.30;99.90;;;;;;4920547;28;20605;-67
2024/03/23 01:05:32;;;;;;;3.30;1.97;;;9.20;99.90;;;;;;4918118;28;20432;-67
2024/03/23 01:07:58;;;;;;;4.90;2.67;;;9.00;99.90;;;;;;4913909;29;20244;-67
2024/03/23 01:10:25;;;;;;;10.70;2.63;;;9.00;99.90;;;;;;4914212;29;20436;-67
2024/03/23 01:12:52;;;;;;;7.23;2.10;;;9.00;99.90;;;;;;4913129;29;20316;-67
2024/03/23 01:15:19;;;;;;;2.10;1.90;;;8.70;99.90;;;;;;4893901;29;20966;-67
2024/03/23 01:17:44;;;;;;;2.60;1.60;;;8.60;99.90;;;;;;4904692;29;20462;-67
2024/03/23 01:20:14;;;;;;;1.43;1.30;;;8.60;99.90;;;;;;4898289;29;20423;-67
2024/03/23 01:22:40;;;;;;;3.73;1.60;;;8.60;99.90;;;;;;4884495;29;20214;-67
2024/03/23 01:25:07;;;;;;;5.37;3.20;;;8.50;99.90;;;;;;4904649;29;20482;-67
2024/03/23 01:27:34;;;;;;;1.57;1.30;;;8.40;99.90;;;;;;4890179;29;20745;-67
2024/03/23 01:30:05;;;;;;;3.40;1.80;;;8.50;99.90;;;;;;4891576;29;20435;-67
2024/03/23 01:32:30;;;;;;;3.23;2.13;;;8.70;99.90;;;;;;4893270;29;20992;-67
2024/03/23 01:34:57;;;;;;;3.43;1.30;;;8.80;99.90;;;;;;4897293;29;20465;-67
2024/03/23 01:37:23;;;;;;;4.70;2.00;;;8.80;99.90;;;;;;4890474;29;20205;-67
2024/03/23 01:39:50;;;;;;;9.47;1.90;;;8.80;99.90;;;;;;4896305;29;20460;-67
2024/03/23 01:42:16;;;;;;;12.53;2.70;;;8.90;99.90;;;;;;4893254;29;20279;-66
2024/03/23 01:44:43;;;;;;;3.10;1.57;;;8.90;99.90;;;;;;4904165;29;20517;-66
2024/03/23 01:47:10;;;;;;;9.73;1.50;;;9.00;99.90;;;;;;4890914;29;20209;-66
2024/03/23 01:49:37;;;;;;;1.80;1.70;;;8.90;99.90;;;;;;4895167;29;20589;-66
2024/03/23 01:52:03;;;;;;;4.87;2.40;;;8.90;99.90;;;;;;4893456;29;20464;-66
2024/03/23 01:54:31;;;;;;;2.00;1.80;;;8.90;99.90;;;;;;4895422;29;20465;-66
2024/03/23 01:56:57;;;;;;;2.57;1.80;;;8.80;99.90;;;;;;4892031;29;20455;-66
2024/03/23 01:59:24;;;;;;;4.80;1.93;;;8.80;99.90;;;;;;4903145;29;22616;-66
2024/03/23 02:01:50;;;;;;;2.73;2.53;;;8.70;99.90;;;;;;4903305;29;20489;-66
2024/03/23 02:04:18;;;;;;;2.83;1.57;;;8.70;99.90;;;;;;4907064;29;20453;-66
2024/03/23 02:06:44;;;;;;;5.33;2.20;;;8.70;99.90;;;;;;4895196;29;20206;-66
2024/03/23 02:09:11;;;;;;;2.43;2.10;;;8.60;99.90;;;;;;4909677;29;20466;-66
2024/03/23 02:11:37;;;;;;;3.23;2.20;;;8.50;99.90;;;;;;4896893;29;20705;-66
2024/03/23 02:14:03;;;;;;;2.33;1.50;;;8.40;99.90;;;;;;4903891;29;20938;-67
2024/03/23 02:16:29;;;;;;;3.23;1.80;;;8.30;99.90;;;;;;4896261;29;20236;-67
2024/03/23 02:18:56;;;;;;;2.87;1.30;;;8.20;99.90;;;;;;4904941;29;20440;-67
2024/03/23 02:21:23;;;;;;;6.40;2.40;;;8.30;99.90;;;;;;4901043;29;20467;-67
2024/03/23 02:23:51;;;;;;;1.80;1.17;;;8.30;99.90;;;;;;4898256;29;20501;-67
2024/03/23 02:26:17;;;;;;;4.57;1.90;;;8.40;99.90;;;;;;4901370;29;20439;-68
2024/03/23 02:28:44;;;;;;;3.17;1.80;;;8.50;99.90;;;;;;4901700;29;20458;-66
2024/03/23 02:31:10;;;;;;;4.13;2.00;;;8.50;99.90;;;;;;4902965;29;20232;-66
2024/03/23 02:33:38;;;;;;;3.23;1.60;;;8.50;99.90;;;;;;4900673;29;20519;-66
2024/03/23 02:36:06;;;;;;;10.13;1.37;;;8.50;99.90;;;;;;4902405;29;20514;-68
2024/03/23 02:38:33;;;;;;;4.23;1.53;;;8.60;99.90;;;;;;4900580;29;20503;-67
2024/03/23 02:41:03;;;;;;;1.70;1.53;;;8.60;99.90;;;;;;4904089;29;20462;-68
2024/03/23 02:43:30;;;;;;;3.37;1.83;;;8.70;99.90;;;;;;4910758;29;20467;-67
2024/03/23 02:45:56;;;;;;;10.43;1.70;;;8.70;99.90;;;;;;4908242;29;21053;-67
2024/03/23 02:48:22;;;;;;;7.90;1.70;;;8.60;99.90;;;;;;4917134;29;20465;-68
2024/03/23 02:50:48;;;;;;;5.73;2.83;;;8.70;99.90;;;;;;4920836;29;20237;-68
2024/03/23 02:53:15;;;;;;;3.77;1.67;;;8.60;99.90;;;;;;4918923;29;20461;-66
2024/03/23 02:55:41;;;;;;;4.63;1.93;;;8.70;99.90;;;;;;4913536;29;20462;-66
2024/03/23 02:58:09;;;;;;;6.97;2.87;;;8.60;99.90;;;;;;5104546;23;20482;-69
2024/03/23 03:00:35;;;;;;;2.40;1.27;;;8.70;99.90;;;;;;4933594;28;20239;-69
2024/03/23 03:03:03;;;;;;;3.20;1.80;;;8.70;99.90;;;;;;4932317;28;20814;-68
2024/03/23 03:05:28;;;;;;;4.00;1.47;;;8.60;99.90;;;;;;4937371;28;20209;-67
2024/03/23 03:07:55;;;;;;;5.80;1.80;;;8.60;99.90;;;;;;4923184;28;20442;-68
2024/03/23 03:10:21;;;;;;;7.00;2.17;;;8.60;99.90;;;;;;4927456;28;20212;-68
2024/03/23 03:12:48;;;;;;;1.90;1.50;;;8.70;99.90;;;;;;4924725;28;20553;-67
2024/03/23 03:15:15;;;;;;;4.70;1.50;;;8.60;99.90;;;;;;4928136;28;20917;-67
2024/03/23 03:17:42;;;;;;;2.43;1.73;;;8.60;99.90;;;;;;4925767;28;20519;-68
2024/03/23 03:20:13;;;;;;;4.90;1.60;;;8.40;99.90;;;;;;4928881;28;20442;-68
2024/03/23 03:22:40;;;;;;;3.07;2.47;;;8.40;99.90;;;;;;4925133;28;20455;-68
2024/03/23 03:25:07;;;;;;;2.40;1.67;;;8.40;99.90;;;;;;4925404;28;20443;-67
2024/03/23 03:27:34;;;;;;;4.63;1.87;;;8.40;99.90;;;;;;4926127;28;20554;-68
2024/03/23 03:30:01;;;;;;;1.20;0.97;;;8.30;99.90;;;;;;4926943;28;20840;-68
2024/03/23 03:32:30;;;;;;;7.33;2.10;;;8.40;99.90;;;;;;4926160;28;20562;-67
2024/03/23 03:34:55;;;;;;;3.00;1.70;;;8.40;99.90;;;;;;4930020;28;20532;-67
2024/03/23 03:37:22;;;;;;;7.70;1.97;;;8.40;99.90;;;;;;4927814;28;20460;-67
2024/03/23 03:39:48;;;;;;;3.73;1.90;;;8.30;99.90;;;;;;4922655;28;20240;-68
2024/03/23 03:42:15;;;;;;;1.87;1.63;;;8.20;99.90;;;;;;4925081;28;20559;-67
2024/03/23 03:44:41;;;;;;;9.47;2.27;;;8.30;99.90;;;;;;4927724;28;20443;-67
2024/03/23 03:47:08;;;;;;;2.60;1.70;;;8.30;99.90;;;;;;4935722;28;20564;-67
2024/03/23 03:49:35;;;;;;;2.40;1.77;;;8.20;99.90;;;;;;4926753;28;20478;-67
2024/03/23 03:52:02;;;;;;;22.13;3.00;;;8.20;99.90;;;;;;4922006;28;20476;-67
2024/03/23 03:54:28;;;;;;;3.87;2.10;;;8.20;99.90;;;;;;4928176;28;20442;-67
2024/03/23 03:56:55;;;;;;;2.97;1.77;;;8.20;99.90;;;;;;4931232;28;20981;-67
2024/03/23 03:59:21;;;;;;;4.03;1.43;;;8.10;99.90;;;;;;4927404;28;20219;-67
2024/03/23 04:01:48;;;;;;;8.73;1.50;;;8.10;99.90;;;;;;4921757;28;20472;-67
2024/03/23 04:04:14;;;;;;;2.17;1.87;;;8.10;99.90;;;;;;4931932;28;20843;-68
2024/03/23 04:06:42;;;;;;;2.77;1.83;;;8.10;99.90;;;;;;4932878;28;20846;-68
2024/03/23 04:09:08;;;;;;;3.23;1.83;;;8.10;99.90;;;;;;4930513;28;20469;-68
2024/03/23 04:11:35;;;;;;;3.20;1.80;;;8.00;99.90;;;;;;4928797;28;20492;-68
2024/03/23 04:14:01;;;;;;;6.93;2.50;;;8.00;99.90;;;;;;4928397;28;20438;-68
2024/03/23 04:16:29;;;;;;;2.40;2.20;;;8.00;99.90;;;;;;4926851;28;20493;-68
2024/03/23 04:18:54;;;;;;;1.87;1.50;;;8.00;99.90;;;;;;4926173;28;20503;-67
2024/03/23 04:21:22;;;;;;;1.97;1.60;;;8.00;99.90;;;;;;4929724;28;20535;-68
2024/03/23 04:23:49;;;;;;;3.70;2.23;;;8.00;99.90;;;;;;4927952;28;20581;-68
2024/03/23 04:26:16;;;;;;;1.40;1.30;;;8.00;99.90;;;;;;4931591;28;20426;-68
2024/03/23 04:28:42;;;;;;;4.07;1.90;;;7.90;99.90;;;;;;4929520;28;20471;-68
2024/03/23 04:31:09;;;;;;;1.77;1.23;;;7.80;99.90;;;;;;4926898;28;20667;-68
2024/03/23 04:33:36;;;;;;;3.40;1.33;;;7.90;99.90;;;;;;4932297;28;20461;-68
2024/03/23 04:36:03;;;;;;;1.93;1.40;;;7.80;99.90;;;;;;4926260;28;20495;-68
2024/03/23 04:38:29;;;;;;;6.10;2.80;;;7.80;99.90;;;;;;4925668;28;20208;-68
2024/03/23 04:40:58;;;;;;;1.47;1.30;;;7.80;99.90;;;;;;4931770;28;20479;-68
2024/03/23 04:43:26;;;;;;;4.83;2.00;;;7.80;99.90;;;;;;4941486;28;20441;-68
2024/03/23 04:45:53;;;;;;;2.67;1.60;;;7.80;99.90;;;;;;4926583;28;20931;-68
2024/03/23 04:48:21;;;;;;;8.73;2.73;;;7.90;99.90;;;;;;4926755;28;20829;-68
2024/03/23 04:50:47;;;;;;;1.43;0.90;;;8.00;99.90;;;;;;4938110;28;20484;-66
2024/03/23 04:53:15;;;;;;;8.10;1.47;;;7.90;99.90;;;;;;4934000;28;20470;-67
2024/03/23 04:55:41;;;;;;;1.93;1.43;;;7.90;99.90;;;;;;4939122;28;20462;-67
2024/03/23 04:58:09;;;;;;;2.53;1.30;;;7.80;99.90;;;;;;4935752;28;21215;-68
2024/03/23 05:00:35;;;;;;;9.93;3.23;;;7.70;99.90;;;;;;4936476;28;20643;-68
2024/03/23 05:03:02;;;;;;;1.67;1.43;;;7.80;99.90;;;;;;4937347;28;20466;-68
2024/03/23 05:05:27;;;;;;;9.97;1.67;;;7.90;99.90;;;;;;4930568;28;20662;-68
2024/03/23 05:07:54;;;;;;;6.10;3.37;;;7.90;99.90;;;;;;4935871;28;20427;-68
2024/03/23 05:10:20;;;;;;;1.80;1.70;;;7.90;99.90;;;;;;4936542;28;21157;-68
2024/03/23 05:12:47;;;;;;;6.00;2.00;;;7.80;99.90;;;;;;4935305;28;20513;-67
2024/03/23 05:15:14;;;;;;;4.30;1.90;;;7.60;99.90;;;;;;4933966;28;20290;-68
2024/03/23 05:17:41;;;;;;;3.30;2.43;;;7.60;99.90;;;;;;4934117;28;20450;-67
2024/03/23 05:20:09;;;;;;;3.40;2.00;;;7.60;99.90;;;;;;4937174;28;20575;-67
2024/03/23 05:22:36;;;;;;;5.00;2.30;;;7.70;99.90;;;;;;4933052;28;20775;-68
2024/03/23 05:25:04;;;;;;;6.27;1.87;;;7.70;99.90;;;;;;4924435;28;21201;-67
2024/03/23 05:27:32;;;;;;;2.90;2.40;;;7.70;99.90;;;;;;4921319;28;20458;-67
2024/03/23 05:29:58;;;;;;;7.40;2.10;;;7.70;99.90;;;;;;4919601;28;20458;-67
2024/03/23 05:32:26;;;;;;;5.93;2.40;;;7.80;99.90;;;;;;4925863;28;20450;-67
2024/03/23 05:34:56;;;;;;;4.43;2.67;;;7.80;99.90;;;;;;4924071;28;20559;-68
2024/03/23 05:37:23;;;;;;;3.47;2.13;;;7.80;99.90;;;;;;4925836;28;20620;-67
2024/03/23 05:39:49;;;;;;;3.63;2.27;;;7.90;99.90;;;;;;4918554;28;20527;-68
2024/03/23 05:42:17;;;;;;;13.33;3.20;;;7.80;99.90;;;;;;4927257;28;20597;-67
2024/03/23 05:44:44;;;;;;;3.80;3.27;;;7.80;99.90;;;;;;4927690;28;21005;-67
2024/03/23 05:47:11;;;;;;;3.33;2.77;;;7.80;99.90;;;;;;4931257;28;20427;-67
2024/03/23 05:49:41;;;;;;;3.67;2.03;;;7.70;99.90;;;;;;4927905;28;20505;-68
2024/03/23 05:52:08;;;;;;;11.40;3.63;;;7.70;99.90;;;;;;4927691;28;20550;-67
2024/03/23 05:54:34;;;;;;;3.20;2.67;;;7.60;99.90;;;;;;4927640;28;20443;-68
2024/03/23 05:57:01;;;;;;;3.80;2.87;;;7.60;99.90;;;;;;4931187;28;20971;-68
2024/03/23 05:59:27;;;;;;;7.00;3.53;;;7.60;99.90;;;;;;4923130;28;20471;-68
2024/03/23 06:01:54;;;;;;;3.77;2.40;;;7.60;99.90;;;;;;4928531;28;21101;-68
2024/03/23 06:04:21;;;;;;;3.50;2.70;;;7.60;99.90;;;;;;4926937;28;20519;-68
2024/03/23 06:06:49;;;;;;;4.30;2.90;;;7.50;99.90;;;;;;4928893;28;20452;-68
2024/03/23 06:09:15;;;;;;;14.47;3.63;;;7.50;99.90;;;;;;4927531;28;20438;-68
2024/03/23 06:11:42;;;;;;;4.30;2.97;;;7.60;99.90;;;;;;4926180;28;20456;-69
2024/03/23 06:14:08;;;;;;;6.77;3.73;;;7.70;99.90;;;;;;4930998;28;20993;-69
2024/03/23 06:16:34;;;;;;;2.40;2.20;;;7.70;99.90;;;;;;4930766;28;20499;-69
2024/03/23 06:19:03;;;;;;;2.70;1.50;;;7.70;99.90;;;;;;4925845;28;20205;-70
2024/03/23 06:21:30;;;;;;;9.63;3.33;;;7.70;99.90;;;;;;4926266;28;20490;-68
2024/03/23 06:23:57;;;;;;;4.77;3.70;;;7.60;99.90;;;;;;4927267;28;21013;-67
2024/03/23 06:26:24;;;;;;;6.23;4.10;;;7.70;99.90;;;;;;4928715;28;20496;-68
2024/03/23 06:28:51;;;;;;;11.00;4.60;;;7.80;99.90;;;;;;4933837;28;20459;-68
2024/03/23 06:31:17;;;;;;;6.53;4.50;;;7.80;99.90;;;;;;4925014;28;20465;-68
2024/03/23 06:33:44;;;;;;;2.90;2.43;;;7.70;99.90;;;;;;4929270;28;20530;-68
2024/03/23 06:36:11;;;;;;;5.93;4.07;;;7.80;99.90;;;;;;4927853;28;20460;-68
2024/03/23 06:38:38;;;;;;;5.37;3.27;;;7.70;99.90;;;;;;4925384;28;20442;-68
2024/03/23 06:41:06;;;;;;;6.17;3.27;;;7.50;99.90;;;;;;4925149;28;20458;-68
2024/03/23 06:43:33;;;;;;;7.03;3.40;;;7.50;99.90;;;;;;4925622;28;20490;-68
2024/03/23 06:45:58;;;;;;;8.80;4.37;;;7.60;99.90;;;;;;4933931;28;20440;-68
2024/03/23 06:48:25;;;;;;;4.73;3.20;;;7.60;99.90;;;;;;4922008;28;20449;-68
2024/03/23 06:50:56;;;;;;;13.10;3.40;;;7.80;99.90;;;;;;4934929;28;20455;-69
2024/03/23 06:53:23;;;;;;;4.87;3.53;;;7.70;99.90;;;;;;4941829;28;20434;-69
2024/03/23 06:55:52;;;;;;;7.87;4.37;;;7.80;99.90;;;;;;4936500;28;20446;-73
2024/03/23 06:58:20;;;;;;;4.00;2.70;;;7.90;99.90;;;;;;4927566;28;20483;-69
2024/03/23 07:00:46;;;;;;;12.00;4.83;;;7.70;99.90;;;;;;4929650;28;20511;-69
2024/03/23 07:03:13;;;;;;;5.43;3.37;;;7.80;99.90;;;;;;4928139;28;20481;-68
2024/03/23 07:05:39;;;;;;;6.00;3.90;;;8.00;99.90;;;;;;4937192;28;20711;-69
2024/03/23 07:08:07;;;;;;;7.83;4.67;;;8.20;99.90;;;;;;4927436;28;20439;-68
2024/03/23 07:10:33;;;;;;;9.50;4.77;;;8.30;99.90;;;;;;4928753;28;20465;-68
2024/03/23 07:13:00;;;;;;;5.13;4.00;;;8.30;99.90;;;;;;4927705;28;21203;-70
2024/03/23 07:15:27;;;;;;;6.83;4.20;;;8.60;99.90;;;;;;4932627;28;20848;-69
2024/03/23 07:17:54;;;;;;;5.63;3.90;;;8.80;99.90;;;;;;4932601;28;20473;-68
2024/03/23 07:20:20;;;;;;;14.00;3.50;;;9.10;99.90;;;;;;4921883;28;20931;-67
2024/03/23 07:22:48;;;;;;;8.33;3.60;;;9.40;99.90;;;;;;4928541;28;21041;-68
2024/03/23 07:25:14;;;;;;;4.60;4.10;;;9.60;99.90;;;;;;4930865;28;20208;-68
2024/03/23 07:27:41;;;;;;;11.10;3.40;;;9.50;99.90;;;;;;4929546;28;20982;-68
2024/03/23 07:30:09;;;;;;;4.90;3.40;;;9.30;99.90;;;;;;4926047;28;20488;-68
2024/03/23 07:32:36;;;;;;;8.23;3.60;;;9.30;99.90;;;;;;4930742;28;20462;-68
2024/03/23 07:35:03;;;;;;;7.27;4.40;;;9.50;99.90;;;;;;4927219;28;20537;-67
2024/03/23 07:37:30;;;;;;;6.70;4.33;;;9.60;99.90;;;;;;4933949;28;20470;-68
2024/03/23 07:39:59;;;;;;;2.97;2.73;;;9.30;99.90;;;;;;4936940;28;20437;-68
2024/03/23 07:42:26;;;;;;;6.33;5.10;;;9.30;99.90;;;;;;4935054;28;20903;-67
2024/03/23 07:44:54;;;;;;;3.23;2.30;;;9.40;99.90;;;;;;4934578;28;20442;-67
2024/03/23 07:47:20;;;;;;;14.00;4.83;;;9.60;99.90;;;;;;4934256;28;20472;-67
2024/03/23 07:49:48;;;;;;;7.53;1.97;;;9.70;99.90;;;;;;4928840;28;20464;-68
2024/03/23 07:52:14;;;;;;;8.90;4.67;;;9.70;99.90;;;;;;4928264;28;20232;-68
2024/03/23 07:54:41;;;;;;;4.40;2.50;;;9.80;99.90;;;;;;4933646;28;20463;-68
2024/03/23 07:57:07;;;;;;;3.80;2.73;;;10.10;99.90;;;;;;4930239;28;21587;-68
2024/03/23 07:59:34;;;;;;;4.03;2.73;;;10.20;99.90;;;;;;4931420;28;20598;-68
2024/03/23 08:02:00;;;;;;;7.10;4.17;;;9.90;99.90;;;;;;4929810;28;20232;-69
2024/03/23 08:04:27;;;;;;;4.13;3.00;;;10.10;99.90;;;;;;4930517;28;20780;-69
2024/03/23 08:06:54;;;;;;;8.60;2.33;;;10.40;99.90;;;;;;4932723;28;20206;-68
2024/03/23 08:09:22;;;;;;;11.80;3.77;;;10.30;99.90;;;;;;4930194;28;20812;-69
2024/03/23 08:11:48;;;;;;;6.20;2.53;;;10.10;99.90;;;;;;4924578;28;20460;-69
2024/03/23 08:14:15;;;;;;;4.63;2.40;;;10.20;99.90;;;;;;4930408;28;20452;-69
2024/03/23 08:16:41;;;;;;;3.40;2.40;;;10.30;99.90;;;;;;4930231;28;20216;-69
2024/03/23 08:19:08;;;;;;;5.23;2.03;;;10.30;99.90;;;;;;4930799;28;20453;-69
2024/03/23 08:21:34;;;;;;;2.20;1.53;;;10.20;99.90;;;;;;4923058;28;22152;-69
2024/03/23 08:24:05;;;;;;;10.27;2.80;;;10.20;99.90;;;;;;4926721;28;20481;-69
2024/03/23 08:26:31;;;;;;;5.93;2.60;;;10.40;99.90;;;;;;4933034;28;20965;-70
2024/03/23 08:28:57;;;;;;;3.40;1.90;;;10.80;99.90;;;;;;4931306;28;21059;-69
2024/03/23 08:31:26;;;;;;;8.97;2.47;;;11.20;99.90;;;;;;4921216;28;21527;-69
2024/03/23 08:33:53;;;;;;;4.67;2.40;;;11.30;99.90;;;;;;4928848;28;20471;-69
2024/03/23 08:36:19;;;;;;;1.80;1.30;;;11.20;99.90;;;;;;4935326;28;20499;-69
2024/03/23 08:38:47;;;;;;;6.17;2.93;;;10.80;99.90;;;;;;4929936;28;20533;-69
2024/03/23 08:41:14;;;;;;;4.53;2.60;;;10.40;99.90;;;;;;4931736;28;21578;-69
2024/03/23 08:43:42;;;;;;;3.40;2.00;;;10.60;99.90;;;;;;4930873;28;20471;-69
2024/03/23 08:46:09;;;;;;;5.63;2.27;;;10.80;99.90;;;;;;4933251;28;20472;-69
2024/03/23 08:48:37;;;;;;;8.53;2.93;;;10.40;99.90;;;;;;4940682;28;20506;-69
2024/03/23 08:51:04;;;;;;;13.47;3.07;;;10.80;99.90;;;;;;4945049;28;20454;-69
2024/03/23 08:53:31;;;;;;;6.67;3.70;;;11.70;99.90;;;;;;4929232;28;20964;-69
2024/03/23 08:55:58;;;;;;;2.13;1.90;;;11.80;99.90;;;;;;4935070;28;20472;-68
2024/03/23 08:58:28;;;;;;;3.07;2.50;;;11.40;99.90;;;;;;5100741;23;20504;-67
2024/03/23 09:00:56;;;;;;;6.43;2.30;;;10.80;99.90;;;;;;4909476;29;21044;-67
2024/03/23 09:03:23;;;;;;;4.23;2.60;;;11.70;99.90;;;;;;4900439;29;20557;-68
2024/03/23 09:05:49;;;;;;;4.30;1.97;;;13.10;99.90;;;;;;4898719;29;20508;-68
2024/03/23 09:08:16;;;;;;;8.00;3.73;;;13.80;99.90;;;;;;4899148;29;20477;-69
2024/03/23 09:10:42;;;;;;;7.90;2.63;;;13.80;99.90;;;;;;4903346;29;20981;-69
2024/03/23 09:13:09;;;;;;;4.87;2.13;;;13.80;99.90;;;;;;4902135;29;20968;-69
2024/03/23 09:15:46;;;;;;;3.57;2.20;;;12.70;99.90;;;;;;4886459;29;20474;-69
2024/03/23 09:18:13;;;;;;;3.10;1.80;;;12.10;99.90;;;;;;4886870;29;20500;-69
2024/03/23 09:20:38;;;;;;;7.80;2.27;;;11.50;99.90;;;;;;4891980;29;20490;-68
2024/03/23 09:23:05;;;;;;;2.70;2.13;;;12.20;99.90;;;;;;4890603;29;20465;-68
2024/03/23 09:25:31;;;;;;;3.60;1.70;;;13.60;99.90;;;;;;4894637;29;20209;-69
2024/03/23 09:27:59;;;;;;;2.07;1.70;;;13.80;99.90;;;;;;4896892;29;20460;-78
2024/03/23 09:30:25;;;;;;;5.97;1.93;;;13.70;99.90;;;;;;4877731;29;20543;-68
2024/03/23 09:32:53;;;;;;;3.50;1.87;;;12.90;99.90;;;;;;4885084;29;20598;-68
2024/03/23 09:35:19;;;;;;;4.23;1.97;;;12.40;99.90;;;;;;4886004;29;20788;-68
2024/03/23 09:37:46;;;;;;;4.43;2.50;;;12.10;99.90;;;;;;4891709;29;20571;-68
2024/03/23 09:40:12;;;;;;;5.83;2.20;;;11.60;99.90;;;;;;4887557;29;20215;-68
2024/03/23 09:42:39;;;;;;;2.40;1.70;;;11.10;99.90;;;;;;4886475;29;20493;-68
2024/03/23 09:45:10;;;;;;;2.50;2.00;;;10.50;99.90;;;;;;4876262;29;20217;-68
2024/03/23 09:47:37;;;;;;;2.30;1.33;;;10.80;99.90;;;;;;4890251;29;20443;-68
2024/03/23 09:50:06;;;;;;;2.60;2.03;;;11.30;99.90;;;;;;4891650;29;20584;-68
2024/03/23 09:52:32;;;;;;;2.67;2.13;;;11.10;99.90;;;;;;4891344;29;20546;-67
2024/03/23 09:54:58;;;;;;;3.20;1.53;;;10.50;99.90;;;;;;4891867;29;20600;-68
2024/03/23 09:57:25;;;;;;;1.87;1.57;;;10.10;99.90;;;;;;4895616;29;20494;-67
2024/03/23 09:59:51;;;;;;;1.47;1.30;;;9.90;99.90;;;;;;4889893;29;20579;-68
2024/03/23 10:02:20;;;;;;;2.10;1.50;;;11.30;99.90;;;;;;4888667;29;20460;-68
2024/03/23 10:04:46;;;;;;;4.50;2.53;;;12.70;99.90;;;;;;4894429;29;20305;-68
2024/03/23 10:07:16;;;;;;;4.90;1.83;;;14.00;99.90;;;;;;4891652;29;20514;-69
2024/03/23 10:09:42;;;;;;;5.40;1.60;;;15.10;99.90;;;;;;4890231;29;21546;-68
2024/03/23 10:12:11;;;;;;;2.83;1.60;;;15.60;99.90;;;;;;4883083;29;20517;-68
2024/03/23 10:14:37;;;;;;;1.80;1.70;;;14.50;99.90;;;;;;4889419;29;21186;-68
2024/03/23 10:17:14;;;;;;;4.13;2.37;;;14.10;99.90;;;;;;4893470;29;20493;-68
2024/03/23 10:19:42;;;;;;;2.97;1.63;;;14.50;99.90;;;;;;4888126;29;20674;-68
2024/03/23 10:22:09;;;;;;;1.97;1.53;;;14.60;99.90;;;;;;4885941;29;20485;-69
2024/03/23 10:24:36;;;;;;;1.80;1.33;;;15.50;99.90;;;;;;4886437;29;21126;-68
2024/03/23 10:27:03;;;;;;;1.53;1.43;;;15.90;99.90;;;;;;4883119;29;20981;-69
2024/03/23 10:29:29;;;;;;;4.83;1.90;;;16.00;99.90;;;;;;4881635;29;20462;-69
2024/03/23 10:32:08;;;;;;;3.40;1.50;;;15.50;99.90;;;;;;4879512;29;20841;-69
2024/03/23 10:34:35;;;;;;;6.93;3.00;;;15.90;99.90;;;;;;4894732;29;20201;-69
2024/03/23 10:37:03;;;;;;;7.53;2.53;;;16.40;99.90;;;;;;4886583;29;21086;-69
2024/03/23 10:39:32;;;;;;;2.03;1.63;;;16.70;99.90;;;;;;4891539;29;20469;-69
2024/03/23 10:42:03;;;;;;;2.70;2.17;;;16.70;99.90;;;;;;4893214;29;20564;-69
2024/03/23 10:44:30;;;;;;;3.80;1.57;;;16.40;99.90;;;;;;4890677;29;20561;-69
2024/03/23 10:46:59;;;;;;;2.47;1.53;;;16.00;99.90;;;;;;4898266;29;20469;-69
2024/03/23 10:49:27;;;;;;;2.60;1.30;;;16.00;99.90;;;;;;4900475;29;20549;-69
2024/03/23 10:51:54;;;;;;;16.70;3.10;;;14.60;99.90;;;;;;4906097;29;20500;-69
2024/03/23 10:54:21;;;;;;;3.80;1.53;;;13.90;99.90;;;;;;4906086;29;20466;-69
2024/03/23 10:56:52;;;;;;;1.60;1.50;;;14.80;99.90;;;;;;4902839;29;20482;-69
2024/03/23 10:59:20;;;;;;;2.03;1.43;;;15.40;99.90;;;;;;4896010;29;20578;-69
2024/03/23 11:01:57;;;;;;;2.23;1.47;;;15.80;99.90;;;;;;4904422;29;20490;-69
2024/03/23 11:04:33;;;;;;;4.60;2.70;;;16.90;99.90;;;;;;4903046;29;21201;-68
2024/03/23 11:07:00;;;;;;;2.33;1.63;;;17.70;99.90;;;;;;4906163;29;20460;-70
2024/03/23 11:09:40;;;;;;;3.33;1.73;;;17.90;98.00;;;;;;4903693;29;20468;-68
2024/03/23 11:12:26;;;;;;;1.70;1.20;;;16.20;98.80;;;;;;4909385;29;20481;-68
2024/03/23 11:14:55;;;;;;;4.30;3.73;;;14.50;99.90;;;;;;4905528;29;21056;-68
2024/03/23 11:17:23;;;;;;;2.40;1.00;;;12.90;99.90;;;;;;4897381;29;21501;-68
2024/03/23 11:19:56;;;;;;;1.90;1.57;;;11.40;99.90;;;;;;4893942;29;20549;-68
2024/03/23 11:22:47;;;;;;;1.50;1.00;;;10.00;99.90;;;;;;4895694;29;20943;-68
2024/03/23 11:25:14;;;;;;;1.50;1.03;;;9.20;99.90;;;;;;4877276;29;20504;-69
2024/03/23 11:27:41;;;;;;;1.10;0.97;;;8.70;99.90;;;;;;4891986;29;20466;-69
2024/03/23 11:30:13;;;;;;;9.43;2.90;;;8.40;99.90;;;;;;4903105;29;20994;-68
2024/03/23 11:32:40;;;;;;;1.10;0.80;;;8.40;99.90;;;;;;4893366;29;20989;-68
2024/03/23 11:35:07;;;;;;;1.80;1.00;;;8.40;99.90;;;;;;4883863;29;20482;-68
2024/03/23 11:37:34;;;;;;;3.03;1.43;;;8.80;99.90;;;;;;4892133;29;20497;-69
2024/03/23 11:40:01;;;;;;;1.70;1.03;;;10.10;99.90;;;;;;4891749;29;20451;-68
2024/03/23 11:42:28;;;;;;;1.40;1.20;;;12.00;99.90;;;;;;4904112;29;20456;-68
2024/03/23 11:44:54;;;;;;;3.43;1.00;;;13.10;99.90;;;;;;4876721;29;21120;-68
2024/03/23 11:47:22;;;;;;;8.93;1.60;;;14.20;99.90;;;;;;4881939;29;20579;-68
2024/03/23 11:49:49;;;;;;;1.83;1.30;;;15.00;99.90;;;;;;4879903;29;20857;-68
2024/03/23 11:52:17;;;;;;;2.53;1.87;;;15.50;99.90;;;;;;4890535;29;20577;-69
2024/03/23 11:54:43;;;;;;;2.13;1.93;;;16.10;99.90;;;;;;4884287;29;20470;-68
2024/03/23 11:57:49;;;;;;;3.80;1.50;;;16.30;99.90;;;;;;4886594;29;20481;-69
2024/03/23 12:00:22;;;;;;;1.97;1.50;;;17.40;99.90;;;;;;4893549;29;20205;-69
2024/03/23 12:02:51;;;;;;;1.20;0.93;;;17.80;99.90;;;;;;4885226;29;20993;-68
2024/03/23 12:05:17;;;;;;;2.00;1.30;;;17.30;99.90;;;;;;4891415;29;20876;-68
2024/03/23 12:07:44;;;;;;;4.50;1.67;;;16.70;99.90;;;;;;4879370;29;22595;-68
2024/03/23 12:10:10;;;;;;;1.33;0.90;;;17.10;99.90;;;;;;4890344;29;20480;-67
2024/03/23 12:12:36;;;;;;;2.27;1.33;;;17.10;99.90;;;;;;4896534;29;20478;-68
2024/03/23 12:15:05;;;;;;;2.00;1.30;;;16.60;99.90;;;;;;4875963;29;20798;-67
2024/03/23 12:17:31;;;;;;;4.47;1.97;;;16.70;99.90;;;;;;4877355;29;20486;-68
2024/03/23 12:19:59;;;;;;;2.33;1.93;;;16.10;99.90;;;;;;4870843;29;20481;-68
2024/03/23 12:22:26;;;;;;;2.47;1.90;;;14.70;99.90;;;;;;4875287;29;20501;-67
2024/03/23 12:24:52;;;;;;;2.20;1.43;;;13.70;99.90;;;;;;4885380;29;20538;-68
2024/03/23 12:27:19;;;;;;;1.60;1.50;;;13.10;99.90;;;;;;4884876;29;20461;-68
2024/03/23 12:29:46;;;;;;;8.53;2.00;;;12.60;99.90;;;;;;4883332;29;20473;-67
2024/03/23 12:32:14;;;;;;;6.67;3.00;;;12.20;99.90;;;;;;4880496;29;20485;-69
2024/03/23 12:34:40;;;;;;;3.63;2.10;;;12.00;99.90;;;;;;4878695;29;20481;-68
2024/03/23 12:37:09;;;;;;;3.43;2.20;;;11.90;99.90;;;;;;4891803;29;20485;-68
2024/03/23 12:39:35;;;;;;;5.43;2.20;;;11.70;99.90;;;;;;4882651;29;20991;-68
2024/03/23 12:42:02;;;;;;;3.00;1.60;;;11.50;99.90;;;;;;4882649;29;20478;-68
2024/03/23 12:44:28;;;;;;;3.97;1.83;;;11.60;99.90;;;;;;4885555;29;20558;-68
2024/03/23 12:46:55;;;;;;;6.93;1.53;;;11.80;99.90;;;;;;4891183;29;20540;-68
2024/03/23 12:49:21;;;;;;;1.27;1.17;;;12.20;99.90;;;;;;4902417;29;20485;-68
2024/03/23 12:51:55;;;;;;;1.10;0.87;;;14.00;99.90;;;;;;4902914;29;20490;-68
2024/03/23 12:54:23;;;;;;;5.17;1.20;;;14.90;99.90;;;;;;4900542;29;20693;-68